createdAt,value
2023-10-31T00:00:19.039Z,1.65
2023-10-31T00:00:51.593Z,1.45
2023-10-31T00:01:23.435Z,1.30
2023-10-31T00:01:56.401Z,1.13
2023-10-31T00:02:27.976Z,1.20
2023-10-31T00:02:59.551Z,1.30
2023-10-31T00:03:32.261Z,1.40
2023-10-31T00:04:03.860Z,1.43
2023-10-31T00:04:35.464Z,1.00
2023-10-31T00:05:07.464Z,1.50
2023-10-31T00:05:39.064Z,1.42
2023-10-31T00:06:10.684Z,1.55
2023-10-31T00:06:42.619Z,1.60
2023-10-31T00:07:14.055Z,1.23
2023-10-31T00:07:45.582Z,1.48
2023-10-31T00:08:17.035Z,1.20
2023-10-31T00:08:48.560Z,1.25
2023-10-31T00:09:20.028Z,1.20
2023-10-31T00:09:51.465Z,1.08
2023-10-31T00:10:22.952Z,1.40
2023-10-31T00:10:54.489Z,1.55
2023-10-31T00:11:26.003Z,1.58
2023-10-31T00:11:57.510Z,1.45
2023-10-31T00:12:28.935Z,1.40
2023-10-31T00:13:00.365Z,1.38
2023-10-31T00:13:31.800Z,1.33
2023-10-31T00:14:03.735Z,1.23
2023-10-31T00:14:35.269Z,1.10
2023-10-31T00:15:06.918Z,1.48
2023-10-31T00:15:38.567Z,1.20
2023-10-31T00:16:10.163Z,0.98
2023-10-31T00:16:41.748Z,1.35
2023-10-31T00:17:13.312Z,1.58
2023-10-31T00:17:44.844Z,1.10
2023-10-31T00:18:16.415Z,1.30
2023-10-31T00:18:47.831Z,1.40
2023-10-31T00:19:19.777Z,0.80
2023-10-31T00:19:51.280Z,1.33
2023-10-31T00:20:22.807Z,1.50
2023-10-31T00:20:54.312Z,0.90
2023-10-31T00:21:25.734Z,1.35
2023-10-31T00:21:57.298Z,1.80
2023-10-31T00:22:29.071Z,1.20
2023-10-31T00:23:00.635Z,1.20
2023-10-31T00:23:32.150Z,1.55
2023-10-31T00:24:04.276Z,1.52
2023-10-31T00:24:54.261Z,0.80
2023-10-31T00:25:25.720Z,1.10
2023-10-31T00:25:57.153Z,1.40
2023-10-31T00:26:28.643Z,1.60
2023-10-31T00:27:00.154Z,1.20
2023-10-31T00:27:31.808Z,1.42
2023-10-31T00:28:03.408Z,2.13
2023-10-31T00:28:34.858Z,1.30
2023-10-31T00:29:06.378Z,1.38
2023-10-31T00:29:37.882Z,1.60
2023-10-31T00:30:09.673Z,1.13
2023-10-31T00:30:41.069Z,1.33
2023-10-31T00:31:12.711Z,1.60
2023-10-31T00:31:44.280Z,1.40
2023-10-31T00:32:15.745Z,1.33
2023-10-31T00:32:47.271Z,1.45
2023-10-31T00:33:18.805Z,1.00
2023-10-31T00:33:50.311Z,1.75
2023-10-31T00:34:21.919Z,2.30
2023-10-31T00:34:53.395Z,1.77
2023-10-31T00:35:24.940Z,1.73
2023-10-31T00:35:56.872Z,2.20
2023-10-31T00:36:28.421Z,2.20
2023-10-31T00:36:59.882Z,2.47
2023-10-31T00:37:31.537Z,2.45
2023-10-31T00:38:21.664Z,2.53
2023-10-31T00:38:53.110Z,1.95
2023-10-31T00:39:24.714Z,2.10
2023-10-31T00:39:56.205Z,2.78
2023-10-31T00:40:27.718Z,2.42
2023-10-31T00:40:59.171Z,2.65
2023-10-31T00:41:31.309Z,2.53
2023-10-31T00:42:02.800Z,2.67
2023-10-31T00:42:34.313Z,3.45
2023-10-31T00:43:06.203Z,3.50
2023-10-31T00:43:37.758Z,3.53
2023-10-31T00:44:09.278Z,4.70
2023-10-31T00:44:40.783Z,3.90
2023-10-31T00:45:12.256Z,4.15
2023-10-31T00:45:43.754Z,4.13
2023-10-31T00:46:15.272Z,4.50
2023-10-31T00:46:46.696Z,3.90
2023-10-31T00:47:18.991Z,5.18
2023-10-31T00:47:50.602Z,3.90
2023-10-31T00:48:22.314Z,4.45
2023-10-31T00:48:53.787Z,4.80
2023-10-31T00:49:25.295Z,4.63
2023-10-31T00:49:57.071Z,4.22
2023-10-31T00:50:29.992Z,3.90
2023-10-31T00:51:01.498Z,4.47
2023-10-31T00:51:33.812Z,4.80
2023-10-31T00:52:05.635Z,4.70
2023-10-31T00:52:37.096Z,4.47
2023-10-31T00:53:09.130Z,4.80
2023-10-31T00:53:40.581Z,4.55
2023-10-31T00:54:12.023Z,4.70
2023-10-31T00:54:43.527Z,4.70
2023-10-31T00:55:15.004Z,4.50
2023-10-31T00:55:46.587Z,5.03
2023-10-31T00:56:18.128Z,5.05
2023-10-31T00:56:49.544Z,5.28
2023-10-31T00:57:21.007Z,4.83
2023-10-31T00:57:53.564Z,5.63
2023-10-31T00:58:25.027Z,6.10
2023-10-31T00:58:56.563Z,5.10
2023-10-31T00:59:28.192Z,6.63
2023-10-31T00:59:59.611Z,4.80
2023-10-31T01:00:31.215Z,5.63
2023-10-31T01:01:02.823Z,6.93
2023-10-31T01:01:34.552Z,6.20
2023-10-31T01:02:06.269Z,5.47
2023-10-31T01:02:37.815Z,5.47
2023-10-31T01:03:09.404Z,5.63
2023-10-31T01:03:41.126Z,5.75
2023-10-31T01:04:12.620Z,6.57
2023-10-31T01:04:44.160Z,6.32
2023-10-31T01:05:15.780Z,6.00
2023-10-31T01:05:47.389Z,6.10
2023-10-31T01:06:18.851Z,6.03
2023-10-31T01:06:50.393Z,5.43
2023-10-31T01:07:21.836Z,6.28
2023-10-31T01:07:53.307Z,6.37
2023-10-31T01:08:24.820Z,6.10
2023-10-31T01:08:56.319Z,5.45
2023-10-31T01:09:27.775Z,6.47
2023-10-31T01:09:59.232Z,5.95
2023-10-31T01:10:30.795Z,6.03
2023-10-31T01:11:02.277Z,5.80
2023-10-31T01:11:33.760Z,6.50
2023-10-31T01:12:06.189Z,6.28
2023-10-31T01:12:56.450Z,6.93
2023-10-31T01:13:27.969Z,6.17
2023-10-31T01:13:59.580Z,6.00
2023-10-31T01:14:31.075Z,5.93
2023-10-31T01:15:02.882Z,6.53
2023-10-31T01:15:34.350Z,7.32
2023-10-31T01:16:06.176Z,6.85
2023-10-31T01:16:37.648Z,6.13
2023-10-31T01:17:09.180Z,6.38
2023-10-31T01:17:40.749Z,6.38
2023-10-31T01:18:12.276Z,6.90
2023-10-31T01:18:43.768Z,5.63
2023-10-31T01:19:15.320Z,6.00
2023-10-31T01:19:46.833Z,6.25
2023-10-31T01:20:18.383Z,5.88
2023-10-31T01:20:50.003Z,6.10
2023-10-31T01:21:21.569Z,6.18
2023-10-31T01:21:53.090Z,5.78
2023-10-31T01:22:24.572Z,6.18
2023-10-31T01:22:56.101Z,6.57
2023-10-31T01:23:27.726Z,6.10
2023-10-31T01:23:59.964Z,6.13
2023-10-31T01:24:31.449Z,5.30
2023-10-31T01:25:51.929Z,5.43
2023-10-31T01:26:23.430Z,6.45
2023-10-31T01:26:55.132Z,5.65
2023-10-31T01:27:26.569Z,6.93
2023-10-31T01:27:58.011Z,5.72
2023-10-31T01:28:29.463Z,6.28
2023-10-31T01:29:00.894Z,5.57
2023-10-31T01:29:32.599Z,6.73
2023-10-31T01:30:04.588Z,5.95
2023-10-31T01:30:36.112Z,6.00
2023-10-31T01:31:08.084Z,5.95
2023-10-31T01:31:52.748Z,6.03
2023-10-31T01:32:31.017Z,5.68
2023-10-31T01:33:02.634Z,5.43
2023-10-31T01:33:34.598Z,6.50
2023-10-31T01:34:06.209Z,5.72
2023-10-31T01:34:37.770Z,6.38
2023-10-31T01:35:09.404Z,5.30
2023-10-31T01:35:40.965Z,5.45
2023-10-31T01:36:13.593Z,6.28
2023-10-31T01:36:45.141Z,6.10
2023-10-31T01:37:16.734Z,6.85
2023-10-31T01:37:48.279Z,6.60
2023-10-31T01:38:19.791Z,6.15
2023-10-31T01:38:51.223Z,6.15
2023-10-31T01:39:22.679Z,6.45
2023-10-31T01:39:54.119Z,6.35
2023-10-31T01:40:25.528Z,5.70
2023-10-31T01:40:57.089Z,6.20
2023-10-31T01:41:28.567Z,6.07
2023-10-31T01:41:59.973Z,6.90
2023-10-31T01:42:31.434Z,6.72
2023-10-31T01:43:02.940Z,6.03
2023-10-31T01:43:36.935Z,6.18
2023-10-31T01:44:08.427Z,6.55
2023-10-31T01:44:39.853Z,6.10
2023-10-31T01:45:12.364Z,5.35
2023-10-31T01:45:43.814Z,5.87
2023-10-31T01:46:15.270Z,5.97
2023-10-31T01:46:46.737Z,5.07
2023-10-31T01:47:18.720Z,5.53
2023-10-31T01:47:53.180Z,5.53
2023-10-31T01:48:26.673Z,5.05
2023-10-31T01:48:58.120Z,5.35
2023-10-31T01:49:29.585Z,5.50
2023-10-31T01:50:01.366Z,7.35
2023-10-31T01:50:32.901Z,4.82
2023-10-31T01:51:05.495Z,5.27
2023-10-31T01:51:37.065Z,5.28
2023-10-31T01:52:08.517Z,5.10
2023-10-31T01:52:40.188Z,4.95
2023-10-31T01:53:11.774Z,5.30
2023-10-31T01:53:43.523Z,5.10
2023-10-31T01:54:15.465Z,5.50
2023-10-31T01:54:46.963Z,5.47
2023-10-31T01:55:19.452Z,5.65
2023-10-31T01:55:52.097Z,5.53
2023-10-31T01:56:25.463Z,5.00
2023-10-31T01:56:59.122Z,5.10
2023-10-31T01:57:31.020Z,4.97
2023-10-31T01:58:03.420Z,5.57
2023-10-31T01:58:38.555Z,5.18
2023-10-31T01:59:10.711Z,5.32
2023-10-31T01:59:42.219Z,5.65
2023-10-31T02:00:15.351Z,5.72
2023-10-31T02:00:47.328Z,5.55
2023-10-31T02:01:19.142Z,6.00
2023-10-31T02:01:50.887Z,5.00
2023-10-31T02:02:24.609Z,5.28
2023-10-31T02:02:56.781Z,5.93
2023-10-31T02:03:29.337Z,6.00
2023-10-31T02:04:03.429Z,6.38
2023-10-31T02:04:35.053Z,5.70
2023-10-31T02:05:07.319Z,6.22
2023-10-31T02:05:38.883Z,5.60
2023-10-31T02:06:10.308Z,5.75
2023-10-31T02:06:41.782Z,6.20
2023-10-31T02:07:13.252Z,5.77
2023-10-31T02:08:04.618Z,5.53
2023-10-31T02:08:36.104Z,6.60
2023-10-31T02:09:08.119Z,6.30
2023-10-31T02:09:39.578Z,6.40
2023-10-31T02:10:10.996Z,7.25
2023-10-31T02:10:42.509Z,6.82
2023-10-31T02:11:14.093Z,6.50
2023-10-31T02:11:45.551Z,6.65
2023-10-31T02:12:33.756Z,7.65
2023-10-31T02:13:16.121Z,5.47
2023-10-31T02:13:47.587Z,7.35
2023-10-31T02:15:09.612Z,6.07
2023-10-31T02:15:41.446Z,5.90
2023-10-31T02:16:12.974Z,6.28
2023-10-31T02:16:44.635Z,6.28
2023-10-31T02:17:16.164Z,7.25
2023-10-31T02:18:55.427Z,6.22
2023-10-31T02:19:27.543Z,6.47
2023-10-31T02:19:59.005Z,6.43
2023-10-31T02:20:30.502Z,6.97
2023-10-31T02:21:01.991Z,6.40
2023-10-31T02:21:33.814Z,6.80
2023-10-31T02:22:05.293Z,6.18
2023-10-31T02:22:36.873Z,7.07
2023-10-31T02:23:08.440Z,7.07
2023-10-31T02:23:39.946Z,6.13
2023-10-31T02:24:11.464Z,6.80
2023-10-31T02:24:42.924Z,6.97
2023-10-31T02:25:19.149Z,6.53
2023-10-31T02:25:50.777Z,6.25
2023-10-31T02:26:22.269Z,7.07
2023-10-31T02:26:53.911Z,6.93
2023-10-31T02:27:25.445Z,7.55
2023-10-31T02:27:56.989Z,7.60
2023-10-31T02:28:29.147Z,7.80
2023-10-31T02:29:01.658Z,8.02
2023-10-31T02:29:51.919Z,8.18
2023-10-31T02:30:24.688Z,9.10
2023-10-31T02:30:56.211Z,8.05
2023-10-31T02:31:28.045Z,8.55
2023-10-31T02:31:59.522Z,8.07
2023-10-31T02:32:31.074Z,8.98
2023-10-31T02:33:03.429Z,8.43
2023-10-31T02:33:34.966Z,7.45
2023-10-31T02:34:06.744Z,8.02
2023-10-31T02:35:27.267Z,7.60
2023-10-31T02:35:58.689Z,8.23
2023-10-31T02:36:30.171Z,8.40
2023-10-31T02:37:01.638Z,8.18
2023-10-31T02:37:33.088Z,7.97
2023-10-31T02:38:04.552Z,8.45
2023-10-31T02:38:36.031Z,8.45
2023-10-31T02:39:07.477Z,8.75
2023-10-31T02:39:39.018Z,7.85
2023-10-31T02:40:11.058Z,8.48
2023-10-31T02:40:42.600Z,8.35
2023-10-31T02:41:14.345Z,8.10
2023-10-31T02:41:45.819Z,8.38
2023-10-31T02:42:17.236Z,8.60
2023-10-31T02:42:49.105Z,8.68
2023-10-31T02:43:20.758Z,7.78
2023-10-31T02:43:52.254Z,8.32
2023-10-31T02:44:23.733Z,10.50
2023-10-31T02:44:55.406Z,8.93
2023-10-31T02:45:26.890Z,8.80
2023-10-31T02:45:58.347Z,8.82
2023-10-31T02:46:48.471Z,8.00
2023-10-31T02:47:20.381Z,7.80
2023-10-31T02:47:51.924Z,8.77
2023-10-31T02:48:24.908Z,8.52
2023-10-31T02:48:56.366Z,8.15
2023-10-31T02:49:27.782Z,8.50
2023-10-31T02:49:59.234Z,7.80
2023-10-31T02:50:30.769Z,7.55
2023-10-31T02:51:02.239Z,7.68
2023-10-31T02:51:33.707Z,7.18
2023-10-31T02:52:05.360Z,7.30
2023-10-31T02:52:37.337Z,8.10
2023-10-31T02:53:08.861Z,8.32
2023-10-31T02:53:40.370Z,8.20
2023-10-31T02:54:11.877Z,7.20
2023-10-31T02:54:43.378Z,7.13
2023-10-31T02:55:14.996Z,7.60
2023-10-31T02:55:46.505Z,6.95
2023-10-31T02:56:18.031Z,7.30
2023-10-31T02:56:49.494Z,7.68
2023-10-31T02:57:20.948Z,7.47
2023-10-31T02:57:52.427Z,7.13
2023-10-31T02:58:23.871Z,7.85
2023-10-31T02:58:55.493Z,7.10
2023-10-31T02:59:27.171Z,6.30
2023-10-31T02:59:58.630Z,6.70
2023-10-31T03:00:30.055Z,7.10
2023-10-31T03:01:01.588Z,7.13
2023-10-31T03:01:33.456Z,6.95
2023-10-31T03:02:05.035Z,6.32
2023-10-31T03:02:36.761Z,5.90
2023-10-31T03:03:08.386Z,5.53
2023-10-31T03:03:39.842Z,5.85
2023-10-31T03:04:11.370Z,5.63
2023-10-31T03:04:42.887Z,6.25
2023-10-31T03:05:14.343Z,5.88
2023-10-31T03:05:45.778Z,5.43
2023-10-31T03:06:17.242Z,5.20
2023-10-31T03:06:48.775Z,5.45
2023-10-31T03:07:20.240Z,4.57
2023-10-31T03:07:51.766Z,4.00
2023-10-31T03:08:23.288Z,4.32
2023-10-31T03:08:54.776Z,4.45
2023-10-31T03:09:26.307Z,4.40
2023-10-31T03:09:57.794Z,4.88
2023-10-31T03:10:29.260Z,4.40
2023-10-31T03:11:00.672Z,4.30
2023-10-31T03:11:33.510Z,4.78
2023-10-31T03:12:05.190Z,4.13
2023-10-31T03:12:36.696Z,4.30
2023-10-31T03:13:08.226Z,3.67
2023-10-31T03:13:39.710Z,4.05
2023-10-31T03:14:11.230Z,4.47
2023-10-31T03:14:43.649Z,4.22
2023-10-31T03:15:15.121Z,4.13
2023-10-31T03:15:47.849Z,4.40
2023-10-31T03:16:19.418Z,3.88
2023-10-31T03:16:50.996Z,4.47
2023-10-31T03:17:23.420Z,3.80
2023-10-31T03:18:15.725Z,3.80
2023-10-31T03:18:47.877Z,3.23
2023-10-31T03:19:19.530Z,3.63
2023-10-31T03:19:51.034Z,3.85
2023-10-31T03:20:22.500Z,4.65
2023-10-31T03:20:53.913Z,3.78
2023-10-31T03:21:25.631Z,4.07
2023-10-31T03:21:57.065Z,3.97
2023-10-31T03:22:28.519Z,4.20
2023-10-31T03:23:00.033Z,4.70
2023-10-31T03:23:31.524Z,3.58
2023-10-31T03:24:03.023Z,4.10
2023-10-31T03:24:34.460Z,3.95
2023-10-31T03:25:06.621Z,4.32
2023-10-31T03:25:38.886Z,3.92
2023-10-31T03:26:10.437Z,4.05
2023-10-31T03:27:00.292Z,4.20
2023-10-31T03:27:31.726Z,3.58
2023-10-31T03:28:03.342Z,3.58
2023-10-31T03:28:34.833Z,4.30
2023-10-31T03:29:06.301Z,3.40
2023-10-31T03:29:37.759Z,3.90
2023-10-31T03:30:09.613Z,4.18
2023-10-31T03:30:41.135Z,4.57
2023-10-31T03:31:13.768Z,3.83
2023-10-31T03:31:45.233Z,3.70
2023-10-31T03:32:17.945Z,3.92
2023-10-31T03:32:50.468Z,4.30
2023-10-31T03:33:21.977Z,3.70
2023-10-31T03:33:54.265Z,3.63
2023-10-31T03:34:25.730Z,4.00
2023-10-31T03:34:57.306Z,3.50
2023-10-31T03:35:28.760Z,3.67
2023-10-31T03:36:00.215Z,3.38
2023-10-31T03:36:31.861Z,3.80
2023-10-31T03:37:03.329Z,3.95
2023-10-31T03:37:34.790Z,3.63
2023-10-31T03:38:06.271Z,3.53
2023-10-31T03:38:38.287Z,3.55
2023-10-31T03:39:09.852Z,4.35
2023-10-31T03:39:41.342Z,2.65
2023-10-31T03:40:12.979Z,3.67
2023-10-31T03:40:44.463Z,3.38
2023-10-31T03:41:16.018Z,3.55
2023-10-31T03:41:47.888Z,3.72
2023-10-31T03:42:19.441Z,3.70
2023-10-31T03:42:50.906Z,3.83
2023-10-31T03:43:22.371Z,3.50
2023-10-31T03:43:53.916Z,2.78
2023-10-31T03:44:25.461Z,2.33
2023-10-31T03:44:56.937Z,2.70
2023-10-31T03:45:28.349Z,3.20
2023-10-31T03:46:00.075Z,2.90
2023-10-31T03:46:31.629Z,2.75
2023-10-31T03:47:03.444Z,4.63
2023-10-31T03:47:35.011Z,4.82
2023-10-31T03:48:06.498Z,2.58
2023-10-31T03:48:37.959Z,3.10
2023-10-31T03:49:09.708Z,2.83
2023-10-31T03:49:41.681Z,2.78
2023-10-31T03:50:13.178Z,2.50
2023-10-31T03:50:44.758Z,1.80
2023-10-31T03:51:16.268Z,2.10
2023-10-31T03:51:47.720Z,2.40
2023-10-31T03:52:20.869Z,2.05
2023-10-31T03:52:52.394Z,2.40
2023-10-31T03:53:23.864Z,3.05
2023-10-31T03:53:55.269Z,2.10
2023-10-31T03:54:26.729Z,2.17
2023-10-31T03:54:58.238Z,1.80
2023-10-31T03:55:31.211Z,2.00
2023-10-31T03:56:02.848Z,2.00
2023-10-31T03:56:44.740Z,1.90
2023-10-31T03:57:16.242Z,2.00
2023-10-31T03:57:47.908Z,2.08
2023-10-31T03:58:19.459Z,1.92
2023-10-31T03:58:51.008Z,1.65
2023-10-31T03:59:22.439Z,2.13
2023-10-31T03:59:53.905Z,2.35
2023-10-31T04:00:25.556Z,1.80
2023-10-31T04:00:57.077Z,1.20
2023-10-31T04:01:28.503Z,1.30
2023-10-31T04:01:59.973Z,1.77
2023-10-31T04:02:31.580Z,1.60
2023-10-31T04:03:03.177Z,1.60
2023-10-31T04:03:34.831Z,1.23
2023-10-31T04:04:06.513Z,1.27
2023-10-31T04:04:37.985Z,1.10
2023-10-31T04:05:09.666Z,1.08
2023-10-31T04:05:41.127Z,1.50
2023-10-31T04:06:12.639Z,1.45
2023-10-31T04:07:02.564Z,1.70
2023-10-31T04:07:34.008Z,1.20
2023-10-31T04:08:05.579Z,1.15
2023-10-31T04:08:37.088Z,1.23
2023-10-31T04:09:08.631Z,1.08
2023-10-31T04:09:40.470Z,1.55
2023-10-31T04:10:11.932Z,0.95
2023-10-31T04:10:43.384Z,0.82
2023-10-31T04:11:14.897Z,1.20
2023-10-31T04:11:46.418Z,1.10
2023-10-31T04:12:18.102Z,1.30
2023-10-31T04:12:49.651Z,1.30
2023-10-31T04:13:21.425Z,1.23
2023-10-31T04:13:52.877Z,1.13
2023-10-31T04:14:24.372Z,0.82
2023-10-31T04:14:55.848Z,1.35
2023-10-31T04:15:27.370Z,1.30
2023-10-31T04:16:47.628Z,1.13
2023-10-31T04:17:19.203Z,1.02
2023-10-31T04:17:50.705Z,1.00
2023-10-31T04:18:22.214Z,0.90
2023-10-31T04:18:53.628Z,1.13
2023-10-31T04:19:25.128Z,1.10
2023-10-31T04:19:56.584Z,1.33
2023-10-31T04:20:28.077Z,1.05
2023-10-31T04:20:59.516Z,1.10
2023-10-31T04:21:30.920Z,1.40
2023-10-31T04:22:02.355Z,1.10
2023-10-31T04:22:33.887Z,2.13
2023-10-31T04:23:06.598Z,0.87
2023-10-31T04:23:40.131Z,0.93
2023-10-31T04:24:11.876Z,0.90
2023-10-31T04:24:44.336Z,1.08
2023-10-31T04:25:15.980Z,1.38
2023-10-31T04:26:06.018Z,0.98
2023-10-31T04:26:37.568Z,0.82
2023-10-31T04:27:08.977Z,0.88
2023-10-31T04:27:40.474Z,0.93
2023-10-31T04:28:11.973Z,1.08
2023-10-31T04:28:43.526Z,1.30
2023-10-31T04:29:15.020Z,1.50
2023-10-31T04:29:46.993Z,1.35
2023-10-31T04:30:18.526Z,0.88
2023-10-31T04:30:50.056Z,1.17
2023-10-31T04:31:31.169Z,1.08
2023-10-31T04:32:10.441Z,0.75
2023-10-31T04:32:42.291Z,0.68
2023-10-31T04:33:13.986Z,1.00
2023-10-31T04:33:45.468Z,0.98
2023-10-31T04:34:16.949Z,0.53
2023-10-31T04:34:48.535Z,0.95
2023-10-31T04:35:19.991Z,0.60
2023-10-31T04:35:51.468Z,0.90
2023-10-31T04:36:23.011Z,1.08
2023-10-31T04:36:54.748Z,0.90
2023-10-31T04:37:26.213Z,0.90
2023-10-31T04:37:57.961Z,0.85
2023-10-31T04:38:29.415Z,0.80
2023-10-31T04:39:00.914Z,0.93
2023-10-31T04:39:32.443Z,0.87
2023-10-31T04:40:04.195Z,0.90
2023-10-31T04:40:35.647Z,0.65
2023-10-31T04:41:09.194Z,1.10
2023-10-31T04:41:40.660Z,1.20
2023-10-31T04:42:12.160Z,0.88
2023-10-31T04:42:44.476Z,0.90
2023-10-31T04:43:15.960Z,0.88
2023-10-31T04:43:47.516Z,0.70
2023-10-31T04:44:19.048Z,1.15
2023-10-31T04:44:50.600Z,0.93
2023-10-31T04:45:22.131Z,1.23
2023-10-31T04:45:53.612Z,0.77
2023-10-31T04:46:30.892Z,1.10
2023-10-31T04:47:02.543Z,1.13
2023-10-31T04:47:34.190Z,1.08
2023-10-31T04:48:06.191Z,0.65
2023-10-31T04:48:37.886Z,1.00
2023-10-31T04:49:09.796Z,1.55
2023-10-31T04:49:41.261Z,0.98
2023-10-31T04:50:13.141Z,1.00
2023-10-31T04:50:44.694Z,0.80
2023-10-31T04:51:16.244Z,1.00
2023-10-31T04:51:47.678Z,0.90
2023-10-31T04:52:20.788Z,1.27
2023-10-31T04:52:52.301Z,0.70
2023-10-31T04:53:23.776Z,1.42
2023-10-31T04:53:55.227Z,1.17
2023-10-31T04:54:26.676Z,1.10
2023-10-31T04:54:58.128Z,1.45
2023-10-31T04:55:29.548Z,1.00
2023-10-31T04:56:01.123Z,0.82
2023-10-31T04:56:32.702Z,1.73
2023-10-31T04:57:05.077Z,1.10
2023-10-31T04:57:36.648Z,1.10
2023-10-31T04:58:08.075Z,1.10
2023-10-31T04:58:39.551Z,1.25
2023-10-31T04:59:11.038Z,1.15
2023-10-31T04:59:42.523Z,1.50
2023-10-31T05:00:14.354Z,1.00
2023-10-31T05:00:45.865Z,0.87
2023-10-31T05:01:17.548Z,1.23
2023-10-31T05:01:51.191Z,1.38
2023-10-31T05:02:24.082Z,0.95
2023-10-31T05:02:57.482Z,1.15
2023-10-31T05:04:18.231Z,1.27
2023-10-31T05:04:52.073Z,1.50
2023-10-31T05:05:23.708Z,1.30
2023-10-31T05:05:55.336Z,1.13
2023-10-31T05:06:28.122Z,0.93
2023-10-31T05:06:59.728Z,0.80
2023-10-31T05:07:31.255Z,0.90
2023-10-31T05:08:02.696Z,0.95
2023-10-31T05:08:34.191Z,1.20
2023-10-31T05:09:06.028Z,1.08
2023-10-31T05:09:38.102Z,1.08
2023-10-31T05:10:09.836Z,1.33
2023-10-31T05:10:41.577Z,1.40
2023-10-31T05:11:13.157Z,0.90
2023-10-31T05:11:44.624Z,1.20
2023-10-31T05:12:16.079Z,1.20
2023-10-31T05:12:47.534Z,1.05
2023-10-31T05:13:18.941Z,1.00
2023-10-31T05:13:51.594Z,1.70
2023-10-31T05:14:23.097Z,1.20
2023-10-31T05:14:54.568Z,0.77
2023-10-31T05:15:26.029Z,1.08
2023-10-31T05:15:57.549Z,1.27
2023-10-31T05:16:29.048Z,1.40
2023-10-31T05:17:19.048Z,1.10
2023-10-31T05:18:09.212Z,0.93
2023-10-31T05:18:40.662Z,0.90
2023-10-31T05:19:12.158Z,1.15
2023-10-31T05:19:43.653Z,1.08
2023-10-31T05:20:15.180Z,1.58
2023-10-31T05:20:46.790Z,1.23
2023-10-31T05:21:25.013Z,1.08
2023-10-31T05:21:56.583Z,1.80
2023-10-31T05:22:28.049Z,2.30
2023-10-31T05:22:59.554Z,1.10
2023-10-31T05:23:31.061Z,1.20
2023-10-31T05:24:03.039Z,1.02
2023-10-31T05:24:34.487Z,1.33
2023-10-31T05:25:06.499Z,1.05
2023-10-31T05:25:38.723Z,1.17
2023-10-31T05:26:10.219Z,1.02
2023-10-31T05:26:43.902Z,1.27
2023-10-31T05:27:15.344Z,1.13
2023-10-31T05:27:46.966Z,0.68
2023-10-31T05:28:18.423Z,0.73
2023-10-31T05:28:49.874Z,0.93
2023-10-31T05:29:21.437Z,1.10
2023-10-31T05:29:52.935Z,1.60
2023-10-31T05:30:24.432Z,1.20
2023-10-31T05:30:55.957Z,0.80
2023-10-31T05:31:27.907Z,1.00
2023-10-31T05:31:59.484Z,0.93
2023-10-31T05:32:30.987Z,1.05
2023-10-31T05:33:03.010Z,0.68
2023-10-31T05:34:23.363Z,1.05
2023-10-31T05:34:56.250Z,1.02
2023-10-31T05:35:28.793Z,1.02
2023-10-31T05:36:00.669Z,1.73
2023-10-31T05:36:32.086Z,0.93
2023-10-31T05:37:03.744Z,0.95
2023-10-31T05:37:35.154Z,0.93
2023-10-31T05:38:06.631Z,0.82
2023-10-31T05:38:56.583Z,1.10
2023-10-31T05:39:28.054Z,1.10
2023-10-31T05:39:59.557Z,0.93
2023-10-31T05:40:33.366Z,1.08
2023-10-31T05:41:09.294Z,1.08
2023-10-31T05:41:40.752Z,1.15
2023-10-31T05:42:12.326Z,0.80
2023-10-31T05:42:43.821Z,1.23
2023-10-31T05:43:15.264Z,1.05
2023-10-31T05:43:46.795Z,0.68
2023-10-31T05:44:18.491Z,1.48
2023-10-31T05:44:50.094Z,1.27
2023-10-31T05:45:21.544Z,1.27
2023-10-31T05:45:53.071Z,0.80
2023-10-31T05:46:24.606Z,1.05
2023-10-31T05:46:56.029Z,0.98
2023-10-31T05:47:28.851Z,1.10
2023-10-31T05:48:18.731Z,1.13
2023-10-31T05:48:50.358Z,1.08
2023-10-31T05:49:22.097Z,1.15
2023-10-31T05:49:53.608Z,0.98
2023-10-31T05:50:25.149Z,1.10
2023-10-31T05:50:56.621Z,1.08
2023-10-31T05:51:30.524Z,0.90
2023-10-31T05:52:02.137Z,1.60
2023-10-31T05:52:33.560Z,1.25
2023-10-31T05:53:23.661Z,1.00
2023-10-31T05:53:55.146Z,1.17
2023-10-31T05:54:27.170Z,1.80
2023-10-31T05:54:58.851Z,1.88
2023-10-31T05:55:30.259Z,1.38
2023-10-31T05:56:01.838Z,1.83
2023-10-31T05:56:33.431Z,1.33
2023-10-31T05:57:05.091Z,1.20
2023-10-31T05:57:36.510Z,1.20
2023-10-31T05:58:07.942Z,1.35
2023-10-31T05:58:39.541Z,1.20
2023-10-31T05:59:11.171Z,1.30
2023-10-31T05:59:42.597Z,1.73
2023-10-31T06:00:14.524Z,2.00
2023-10-31T06:00:45.995Z,1.58
2023-10-31T06:01:36.267Z,1.27
2023-10-31T06:02:07.768Z,1.20
2023-10-31T06:02:39.389Z,2.05
2023-10-31T06:03:11.049Z,1.75
2023-10-31T06:03:44.528Z,1.55
2023-10-31T06:04:16.402Z,1.80
2023-10-31T06:04:47.882Z,1.88
2023-10-31T06:05:19.457Z,1.55
2023-10-31T06:05:50.978Z,1.80
2023-10-31T06:06:22.394Z,1.45
2023-10-31T06:06:54.252Z,1.77
2023-10-31T06:07:25.862Z,1.80
2023-10-31T06:07:57.341Z,1.50
2023-10-31T06:08:29.994Z,1.52
2023-10-31T06:09:01.466Z,1.77
2023-10-31T06:09:34.566Z,1.80
2023-10-31T06:10:06.723Z,2.00
2023-10-31T06:10:38.249Z,1.92
2023-10-31T06:11:13.306Z,1.65
2023-10-31T06:11:45.663Z,2.45
2023-10-31T06:12:35.481Z,1.77
2023-10-31T06:13:07.025Z,1.60
2023-10-31T06:13:38.432Z,1.95
2023-10-31T06:14:10.328Z,2.30
2023-10-31T06:14:41.849Z,2.42
2023-10-31T06:15:13.343Z,2.58
2023-10-31T06:15:45.533Z,2.25
2023-10-31T06:16:17.179Z,2.50
2023-10-31T06:16:48.709Z,2.38
2023-10-31T06:17:20.175Z,2.75
2023-10-31T06:17:51.657Z,2.60
2023-10-31T06:18:23.143Z,2.88
2023-10-31T06:18:54.565Z,3.13
2023-10-31T06:19:26.046Z,2.80
2023-10-31T06:19:57.532Z,3.35
2023-10-31T06:20:28.935Z,2.97
2023-10-31T06:21:00.746Z,2.67
2023-10-31T06:21:32.274Z,3.13
2023-10-31T06:22:04.171Z,3.20
2023-10-31T06:22:35.632Z,3.53
2023-10-31T06:23:07.113Z,3.50
2023-10-31T06:23:39.388Z,3.70
2023-10-31T06:24:11.146Z,3.80
2023-10-31T06:24:42.604Z,3.97
2023-10-31T06:25:14.126Z,4.28
2023-10-31T06:25:45.614Z,3.53
2023-10-31T06:26:17.103Z,3.70
2023-10-31T06:26:48.599Z,3.55
2023-10-31T06:27:20.063Z,4.13
2023-10-31T06:27:51.608Z,4.10
2023-10-31T06:28:24.300Z,3.30
2023-10-31T06:29:09.431Z,5.38
2023-10-31T06:30:00.324Z,3.63
2023-10-31T06:30:38.067Z,3.95
2023-10-31T06:31:09.591Z,4.38
2023-10-31T06:31:41.131Z,4.68
2023-10-31T06:32:12.749Z,3.88
2023-10-31T06:32:44.274Z,4.45
2023-10-31T06:33:15.840Z,4.40
2023-10-31T06:33:47.293Z,3.90
2023-10-31T06:34:18.925Z,4.00
2023-10-31T06:34:50.423Z,4.07
2023-10-31T06:35:22.154Z,3.72
2023-10-31T06:35:54.808Z,4.72
2023-10-31T06:36:26.256Z,4.20
2023-10-31T06:36:57.673Z,4.53
2023-10-31T06:37:29.202Z,4.40
2023-10-31T06:38:01.174Z,4.80
2023-10-31T06:38:32.608Z,3.90
2023-10-31T06:39:04.138Z,4.18
2023-10-31T06:39:35.582Z,4.20
2023-10-31T06:40:07.776Z,4.15
2023-10-31T06:40:39.252Z,3.42
2023-10-31T06:41:10.816Z,4.13
2023-10-31T06:41:42.386Z,3.92
2023-10-31T06:42:13.870Z,4.53
2023-10-31T06:42:45.333Z,4.03
2023-10-31T06:43:16.921Z,3.85
2023-10-31T06:43:48.355Z,5.25
2023-10-31T06:44:19.909Z,4.40
2023-10-31T06:45:10.228Z,4.17
2023-10-31T06:45:41.678Z,4.85
2023-10-31T06:46:13.316Z,4.75
2023-10-31T06:46:44.840Z,3.88
2023-10-31T06:47:16.351Z,4.53
2023-10-31T06:47:47.865Z,4.07
2023-10-31T06:48:19.405Z,4.25
2023-10-31T06:48:50.893Z,3.88
2023-10-31T06:49:23.661Z,3.70
2023-10-31T06:49:55.109Z,3.45
2023-10-31T06:50:26.783Z,3.63
2023-10-31T06:50:58.329Z,3.92
2023-10-31T06:51:29.754Z,3.53
2023-10-31T06:52:01.256Z,4.32
2023-10-31T06:52:32.692Z,3.67
2023-10-31T06:53:04.249Z,3.13
2023-10-31T06:54:24.380Z,3.45
2023-10-31T06:54:56.034Z,3.90
2023-10-31T06:55:27.475Z,3.72
2023-10-31T06:55:59.056Z,3.30
2023-10-31T06:56:30.639Z,3.38
2023-10-31T06:57:02.767Z,3.60
2023-10-31T06:57:34.260Z,2.88
2023-10-31T06:58:05.717Z,3.22
2023-10-31T06:58:37.257Z,3.00
2023-10-31T06:59:09.708Z,2.70
2023-10-31T06:59:41.367Z,3.60
2023-10-31T07:00:13.493Z,3.50
2023-10-31T07:00:45.085Z,2.85
2023-10-31T07:01:19.605Z,2.60
2023-10-31T07:02:10.048Z,2.13
2023-10-31T07:02:41.631Z,2.97
2023-10-31T07:03:16.418Z,2.70
2023-10-31T07:03:48.591Z,2.53
2023-10-31T07:04:20.211Z,2.20
2023-10-31T07:04:51.996Z,2.42
2023-10-31T07:05:23.542Z,2.67
2023-10-31T07:05:57.288Z,2.28
2023-10-31T07:06:28.826Z,2.00
2023-10-31T07:07:00.378Z,2.40
2023-10-31T07:07:31.863Z,2.30
2023-10-31T07:08:04.468Z,2.50
2023-10-31T07:08:36.040Z,2.63
2023-10-31T07:09:07.524Z,2.42
2023-10-31T07:09:38.937Z,2.17
2023-10-31T07:10:10.815Z,1.75
2023-10-31T07:10:42.299Z,2.40
2023-10-31T07:11:13.855Z,2.13
2023-10-31T07:11:45.304Z,1.98
2023-10-31T07:12:17.169Z,1.87
2023-10-31T07:12:48.749Z,2.17
2023-10-31T07:13:20.262Z,2.05
2023-10-31T07:13:51.698Z,1.95
2023-10-31T07:14:23.210Z,2.17
2023-10-31T07:14:54.654Z,1.98
2023-10-31T07:15:27.032Z,2.00
2023-10-31T07:15:58.518Z,1.95
2023-10-31T07:16:49.865Z,1.52
2023-10-31T07:17:21.646Z,1.75